Disclaimer

Please do not use the information listed here in-flight or in-navigation, as they are not provided to us by the airports but are provided by volunteers, so they might be outdated.

Search


Regions


Airport information page

No radio frequency information is available.

Airport informations:
Latitude: 42° 10' 35.95" N
Longitude: 042° 28' 57.30" E
Elevation: 223 feet - 68 meters
Operating hours: Remarks
Operating agency: Civil government, landing fees and diplomatic clearance may be required
Timezone: UTC+3(+4DT) - Last Sunday in March to last Sunday in October
Fuel: N/A

Runway information:
08/26 - 8202 x 144 feet< - >2500 x 44 meters

Recent METARs:
UGKO 151200Z 08007KT 9999 SCT030 OVC049 10/08 Q1019 NOSIG
UGKO 151230Z AUTO 08006KT CAVOK 10/08 Q1019 NOSIG
UGKO 151300Z 08007KT 9999 SCT030 BKN049 10/08 Q1019 NOSIG

Airport on the map: